sensor_id;sensor_type;location;lat;lon;timestamp;temperature;humidity
47540;DHT22;33280;52.152;21.052;2022-08-19T00:01:26;22.60;99.90
47540;DHT22;33280;52.152;21.052;2022-08-19T00:03:58;22.70;99.90
47540;DHT22;33280;52.152;21.052;2022-08-19T00:06:26;22.60;99.90
47540;DHT22;33280;52.152;21.052;2022-08-19T00:08:53;22.60;99.90
47540;DHT22;33280;52.152;21.052;2022-08-19T00:11:20;22.60;99.90
47540;DHT22;33280;52.152;21.052;2022-08-19T00:13:51;22.50;99.90
47540;DHT22;33280;52.152;21.052;2022-08-19T00:16:19;22.60;99.90
47540;DHT22;33280;52.152;21.052;2022-08-19T00:18:52;22.60;99.90
47540;DHT22;33280;52.152;21.052;2022-08-19T00:21:20;22.60;99.90
47540;DHT22;33280;52.152;21.052;2022-08-19T00:23:47;22.60;99.90
47540;DHT22;33280;52.152;21.052;2022-08-19T00:26:14;22.60;99.90
47540;DHT22;33280;52.152;21.052;2022-08-19T00:28:41;22.60;99.90
47540;DHT22;33280;52.152;21.052;2022-08-19T00:31:09;22.60;99.90
47540;DHT22;33280;52.152;21.052;2022-08-19T00:33:36;22.50;99.90
47540;DHT22;33280;52.152;21.052;2022-08-19T00:36:06;22.50;99.90
47540;DHT22;33280;52.152;21.052;2022-08-19T00:38:34;22.50;99.90
47540;DHT22;33280;52.152;21.052;2022-08-19T00:41:05;22.50;99.90
47540;DHT22;33280;52.152;21.052;2022-08-19T00:43:33;22.40;99.90
47540;DHT22;33280;52.152;21.052;2022-08-19T00:46:00;22.50;99.90
47540;DHT22;33280;52.152;21.052;2022-08-19T00:48:32;22.40;99.90
47540;DHT22;33280;52.152;21.052;2022-08-19T00:51:00;22.40;99.90
47540;DHT22;33280;52.152;21.052;2022-08-19T00:53:30;22.30;99.90
47540;DHT22;33280;52.152;21.052;2022-08-19T00:55:59;22.40;99.90
47540;DHT22;33280;52.152;21.052;2022-08-19T00:58:31;22.30;99.90
47540;DHT22;33280;52.152;21.052;2022-08-19T01:01:00;22.30;99.90
47540;DHT22;33280;52.152;21.052;2022-08-19T01:03:27;22.30;99.90
47540;DHT22;33280;52.152;21.052;2022-08-19T01:06:14;22.30;99.90
47540;DHT22;33280;52.152;21.052;2022-08-19T01:08:46;22.20;99.90
47540;DHT22;33280;52.152;21.052;2022-08-19T01:11:16;22.20;99.90
47540;DHT22;33280;52.152;21.052;2022-08-19T01:13:44;22.20;99.90
47540;DHT22;33280;52.152;21.052;2022-08-19T01:16:17;22.10;99.90
47540;DHT22;33280;52.152;21.052;2022-08-19T01:18:45;22.00;99.90
47540;DHT22;33280;52.152;21.052;2022-08-19T01:21:31;22.00;99.90
47540;DHT22;33280;52.152;21.052;2022-08-19T01:23:59;22.00;99.90
47540;DHT22;33280;52.152;21.052;2022-08-19T01:26:27;21.90;99.90
47540;DHT22;33280;52.152;21.052;2022-08-19T01:28:58;21.90;99.90
47540;DHT22;33280;52.152;21.052;2022-08-19T01:31:28;21.90;99.90
47540;DHT22;33280;52.152;21.052;2022-08-19T01:33:59;21.80;99.90
47540;DHT22;33280;52.152;21.052;2022-08-19T01:39:01;21.70;99.90
47540;DHT22;33280;52.152;21.052;2022-08-19T01:41:30;21.70;99.90
47540;DHT22;33280;52.152;21.052;2022-08-19T01:43:56;21.60;99.90
47540;DHT22;33280;52.152;21.052;2022-08-19T01:46:44;21.60;99.90
47540;DHT22;33280;52.152;21.052;2022-08-19T01:49:10;21.60;99.90
47540;DHT22;33280;52.152;21.052;2022-08-19T01:51:38;21.50;99.90
47540;DHT22;33280;52.152;21.052;2022-08-19T01:54:10;21.50;99.90
47540;DHT22;33280;52.152;21.052;2022-08-19T01:56:38;21.50;99.90
47540;DHT22;33280;52.152;21.052;2022-08-19T01:59:11;21.50;99.90
47540;DHT22;33280;52.152;21.052;2022-08-19T02:01:38;21.50;99.90
47540;DHT22;33280;52.152;21.052;2022-08-19T02:04:06;21.50;99.90
47540;DHT22;33280;52.152;21.052;2022-08-19T02:06:33;21.50;99.90
47540;DHT22;33280;52.152;21.052;2022-08-19T02:09:00;21.50;99.90
47540;DHT22;33280;52.152;21.052;2022-08-19T02:11:33;21.50;99.90
47540;DHT22;33280;52.152;21.052;2022-08-19T02:14:02;21.50;99.90
47540;DHT22;33280;52.152;21.052;2022-08-19T02:16:29;21.40;99.90
47540;DHT22;33280;52.152;21.052;2022-08-19T02:19:07;21.40;99.90
47540;DHT22;33280;52.152;21.052;2022-08-19T02:21:42;21.40;99.90
47540;DHT22;33280;52.152;21.052;2022-08-19T02:24:10;21.40;99.90
47540;DHT22;33280;52.152;21.052;2022-08-19T02:26:37;21.40;99.90
47540;DHT22;33280;52.152;21.052;2022-08-19T02:29:03;21.30;99.90
47540;DHT22;33280;52.152;21.052;2022-08-19T02:31:30;21.30;99.90
47540;DHT22;33280;52.152;21.052;2022-08-19T02:33:57;21.20;99.90
47540;DHT22;33280;52.152;21.052;2022-08-19T02:36:25;21.20;99.90
47540;DHT22;33280;52.152;21.052;2022-08-19T02:38:53;21.20;99.90
47540;DHT22;33280;52.152;21.052;2022-08-19T02:41:26;21.20;99.90
47540;DHT22;33280;52.152;21.052;2022-08-19T02:43:55;21.10;99.90
47540;DHT22;33280;52.152;21.052;2022-08-19T02:46:45;21.10;99.90
47540;DHT22;33280;52.152;21.052;2022-08-19T02:49:13;21.10;99.90
47540;DHT22;33280;52.152;21.052;2022-08-19T02:51:43;21.10;99.90
47540;DHT22;33280;52.152;21.052;2022-08-19T02:54:12;21.10;99.90
47540;DHT22;33280;52.152;21.052;2022-08-19T02:56:40;21.00;99.90
47540;DHT22;33280;52.152;21.052;2022-08-19T02:59:15;21.00;99.90
47540;DHT22;33280;52.152;21.052;2022-08-19T03:01:48;21.00;99.90
47540;DHT22;33280;52.152;21.052;2022-08-19T03:04:16;21.00;99.90
47540;DHT22;33280;52.152;21.052;2022-08-19T03:06:45;20.90;99.90
47540;DHT22;33280;52.152;21.052;2022-08-19T03:09:13;20.90;99.90
47540;DHT22;33280;52.152;21.052;2022-08-19T03:11:40;20.90;99.90
47540;DHT22;33280;52.152;21.052;2022-08-19T03:14:08;20.90;99.90
47540;DHT22;33280;52.152;21.052;2022-08-19T03:16:45;20.90;99.90
47540;DHT22;33280;52.152;21.052;2022-08-19T03:19:13;20.80;99.90
47540;DHT22;33280;52.152;21.052;2022-08-19T03:21:42;20.80;99.90
47540;DHT22;33280;52.152;21.052;2022-08-19T03:24:17;20.80;99.90
47540;DHT22;33280;52.152;21.052;2022-08-19T03:26:53;20.80;99.90
47540;DHT22;33280;52.152;21.052;2022-08-19T03:29:33;20.80;99.90
47540;DHT22;33280;52.152;21.052;2022-08-19T03:32:09;20.80;99.90
47540;DHT22;33280;52.152;21.052;2022-08-19T03:35:01;20.80;99.90
47540;DHT22;33280;52.152;21.052;2022-08-19T03:37:29;20.80;99.90
47540;DHT22;33280;52.152;21.052;2022-08-19T03:39:56;20.80;99.90
47540;DHT22;33280;52.152;21.052;2022-08-19T03:42:23;20.70;99.90
47540;DHT22;33280;52.152;21.052;2022-08-19T03:45:10;20.80;99.90
47540;DHT22;33280;52.152;21.052;2022-08-19T03:47:37;20.70;99.90
47540;DHT22;33280;52.152;21.052;2022-08-19T03:50:04;20.70;99.90
47540;DHT22;33280;52.152;21.052;2022-08-19T03:52:31;20.70;99.90
47540;DHT22;33280;52.152;21.052;2022-08-19T03:54:58;20.80;99.90
47540;DHT22;33280;52.152;21.052;2022-08-19T03:57:26;20.80;99.90
47540;DHT22;33280;52.152;21.052;2022-08-19T03:59:58;20.80;99.90
47540;DHT22;33280;52.152;21.052;2022-08-19T04:02:40;20.80;99.90
47540;DHT22;33280;52.152;21.052;2022-08-19T04:05:29;20.90;99.90
47540;DHT22;33280;52.152;21.052;2022-08-19T04:07:56;20.90;99.90
47540;DHT22;33280;52.152;21.052;2022-08-19T04:10:28;20.90;99.90
47540;DHT22;33280;52.152;21.052;2022-08-19T04:12:55;20.90;99.90
47540;DHT22;33280;52.152;21.052;2022-08-19T04:15:22;21.00;99.90
47540;DHT22;33280;52.152;21.052;2022-08-19T04:17:49;21.00;99.90
47540;DHT22;33280;52.152;21.052;2022-08-19T04:20:18;21.00;99.90
47540;DHT22;33280;52.152;21.052;2022-08-19T04:22:45;21.10;99.90
47540;DHT22;33280;52.152;21.052;2022-08-19T04:25:16;21.10;99.90
47540;DHT22;33280;52.152;21.052;2022-08-19T04:27:43;21.20;99.90
47540;DHT22;33280;52.152;21.052;2022-08-19T04:30:13;21.20;99.90
47540;DHT22;33280;52.152;21.052;2022-08-19T04:32:41;21.30;99.90
47540;DHT22;33280;52.152;21.052;2022-08-19T04:35:10;21.40;99.90
47540;DHT22;33280;52.152;21.052;2022-08-19T04:37:44;21.40;99.90
47540;DHT22;33280;52.152;21.052;2022-08-19T04:40:11;21.50;99.90
47540;DHT22;33280;52.152;21.052;2022-08-19T04:42:57;21.50;99.90
47540;DHT22;33280;52.152;21.052;2022-08-19T04:45:24;21.70;99.90
47540;DHT22;33280;52.152;21.052;2022-08-19T04:47:54;21.70;99.90
47540;DHT22;33280;52.152;21.052;2022-08-19T04:50:27;21.80;99.90
47540;DHT22;33280;52.152;21.052;2022-08-19T04:52:55;21.90;99.90
47540;DHT22;33280;52.152;21.052;2022-08-19T04:55:22;21.90;99.90
47540;DHT22;33280;52.152;21.052;2022-08-19T04:57:52;22.00;99.90
47540;DHT22;33280;52.152;21.052;2022-08-19T05:00:19;22.00;99.90
47540;DHT22;33280;52.152;21.052;2022-08-19T05:02:46;22.00;99.90
47540;DHT22;33280;52.152;21.052;2022-08-19T05:05:13;22.00;99.90
47540;DHT22;33280;52.152;21.052;2022-08-19T05:07:40;22.00;99.90
47540;DHT22;33280;52.152;21.052;2022-08-19T05:10:08;22.00;99.90
47540;DHT22;33280;52.152;21.052;2022-08-19T05:12:35;22.10;99.90
47540;DHT22;33280;52.152;21.052;2022-08-19T05:15:06;22.20;99.90
47540;DHT22;33280;52.152;21.052;2022-08-19T05:17:36;22.30;99.90
47540;DHT22;33280;52.152;21.052;2022-08-19T05:20:07;22.30;99.90
47540;DHT22;33280;52.152;21.052;2022-08-19T05:22:53;22.40;99.90
47540;DHT22;33280;52.152;21.052;2022-08-19T05:25:21;22.40;99.90
47540;DHT22;33280;52.152;21.052;2022-08-19T05:27:48;22.50;99.90
47540;DHT22;33280;52.152;21.052;2022-08-19T05:30:16;22.50;99.90
47540;DHT22;33280;52.152;21.052;2022-08-19T05:32:44;22.50;99.90
47540;DHT22;33280;52.152;21.052;2022-08-19T05:35:11;22.60;99.90
47540;DHT22;33280;52.152;21.052;2022-08-19T05:37:38;22.60;99.90
47540;DHT22;33280;52.152;21.052;2022-08-19T05:40:09;22.60;99.90
47540;DHT22;33280;52.152;21.052;2022-08-19T05:42:37;22.70;99.90
47540;DHT22;33280;52.152;21.052;2022-08-19T05:45:06;22.70;99.90
47540;DHT22;33280;52.152;21.052;2022-08-19T05:47:36;22.80;99.90
47540;DHT22;33280;52.152;21.052;2022-08-19T05:50:08;22.90;99.90
47540;DHT22;33280;52.152;21.052;2022-08-19T05:52:36;23.00;99.90
47540;DHT22;33280;52.152;21.052;2022-08-19T05:55:09;23.00;99.90
47540;DHT22;33280;52.152;21.052;2022-08-19T05:57:37;23.10;99.90
47540;DHT22;33280;52.152;21.052;2022-08-19T06:00:05;23.10;99.90
47540;DHT22;33280;52.152;21.052;2022-08-19T06:02:37;23.10;99.90
47540;DHT22;33280;52.152;21.052;2022-08-19T06:05:05;23.10;99.90
47540;DHT22;33280;52.152;21.052;2022-08-19T06:07:40;23.10;99.90
47540;DHT22;33280;52.152;21.052;2022-08-19T06:10:10;23.20;99.90
47540;DHT22;33280;52.152;21.052;2022-08-19T06:12:38;23.30;99.90
47540;DHT22;33280;52.152;21.052;2022-08-19T06:15:11;23.40;99.90
47540;DHT22;33280;52.152;21.052;2022-08-19T06:17:41;23.50;99.90
47540;DHT22;33280;52.152;21.052;2022-08-19T06:20:13;23.40;99.90
47540;DHT22;33280;52.152;21.052;2022-08-19T06:22:43;23.40;99.90
47540;DHT22;33280;52.152;21.052;2022-08-19T06:25:11;23.40;99.90
47540;DHT22;33280;52.152;21.052;2022-08-19T06:27:39;23.50;99.90
47540;DHT22;33280;52.152;21.052;2022-08-19T06:30:30;23.60;99.90
47540;DHT22;33280;52.152;21.052;2022-08-19T06:32:57;23.70;99.90
47540;DHT22;33280;52.152;21.052;2022-08-19T06:35:24;23.70;99.90
47540;DHT22;33280;52.152;21.052;2022-08-19T06:37:51;23.80;99.90
47540;DHT22;33280;52.152;21.052;2022-08-19T06:40:19;23.90;99.90
47540;DHT22;33280;52.152;21.052;2022-08-19T06:42:46;23.90;99.90
47540;DHT22;33280;52.152;21.052;2022-08-19T06:45:21;24.00;99.90
47540;DHT22;33280;52.152;21.052;2022-08-19T06:47:52;24.10;99.90
47540;DHT22;33280;52.152;21.052;2022-08-19T06:50:25;24.10;99.90
47540;DHT22;33280;52.152;21.052;2022-08-19T06:52:54;24.20;99.90
47540;DHT22;33280;52.152;21.052;2022-08-19T06:55:21;24.20;99.90
47540;DHT22;33280;52.152;21.052;2022-08-19T06:57:49;24.30;99.90
47540;DHT22;33280;52.152;21.052;2022-08-19T07:00:17;24.40;99.90
47540;DHT22;33280;52.152;21.052;2022-08-19T07:02:45;24.50;99.90
47540;DHT22;33280;52.152;21.052;2022-08-19T07:05:21;24.60;99.90
47540;DHT22;33280;52.152;21.052;2022-08-19T07:07:48;24.80;99.90
47540;DHT22;33280;52.152;21.052;2022-08-19T07:10:17;24.90;99.90
47540;DHT22;33280;52.152;21.052;2022-08-19T07:12:43;25.00;99.90
47540;DHT22;33280;52.152;21.052;2022-08-19T07:15:11;24.90;99.90
47540;DHT22;33280;52.152;21.052;2022-08-19T07:17:39;25.00;99.90
47540;DHT22;33280;52.152;21.052;2022-08-19T07:20:08;25.10;99.90
47540;DHT22;33280;52.152;21.052;2022-08-19T07:22:39;25.20;99.90
47540;DHT22;33280;52.152;21.052;2022-08-19T07:25:08;25.30;99.90
47540;DHT22;33280;52.152;21.052;2022-08-19T07:27:36;25.40;99.90
47540;DHT22;33280;52.152;21.052;2022-08-19T07:30:08;25.50;99.90
47540;DHT22;33280;52.152;21.052;2022-08-19T07:32:38;25.60;99.90
47540;DHT22;33280;52.152;21.052;2022-08-19T07:35:06;25.70;99.90
47540;DHT22;33280;52.152;21.052;2022-08-19T07:37:33;25.80;99.90
47540;DHT22;33280;52.152;21.052;2022-08-19T07:40:05;25.90;99.90
47540;DHT22;33280;52.152;21.052;2022-08-19T07:42:32;26.00;99.90
47540;DHT22;33280;52.152;21.052;2022-08-19T07:44:59;26.10;99.90
47540;DHT22;33280;52.152;21.052;2022-08-19T07:47:31;26.20;99.90
47540;DHT22;33280;52.152;21.052;2022-08-19T07:50:19;26.40;99.90
47540;DHT22;33280;52.152;21.052;2022-08-19T07:52:53;26.50;99.90
47540;DHT22;33280;52.152;21.052;2022-08-19T07:55:23;26.60;99.90
47540;DHT22;33280;52.152;21.052;2022-08-19T07:58:10;26.80;99.90
47540;DHT22;33280;52.152;21.052;2022-08-19T08:00:37;26.90;99.90
47540;DHT22;33280;52.152;21.052;2022-08-19T08:03:04;27.00;99.90
47540;DHT22;33280;52.152;21.052;2022-08-19T08:05:31;27.20;99.90
47540;DHT22;33280;52.152;21.052;2022-08-19T08:08:16;27.20;99.90
47540;DHT22;33280;52.152;21.052;2022-08-19T08:11:03;27.50;99.90
47540;DHT22;33280;52.152;21.052;2022-08-19T08:13:34;28.00;99.90
47540;DHT22;33280;52.152;21.052;2022-08-19T08:16:04;28.50;99.90
47540;DHT22;33280;52.152;21.052;2022-08-19T08:18:39;28.90;99.90
47540;DHT22;33280;52.152;21.052;2022-08-19T08:21:16;29.30;99.90
47540;DHT22;33280;52.152;21.052;2022-08-19T08:23:43;29.60;99.90
47540;DHT22;33280;52.152;21.052;2022-08-19T08:26:10;29.80;99.90
47540;DHT22;33280;52.152;21.052;2022-08-19T08:28:38;30.00;99.90
47540;DHT22;33280;52.152;21.052;2022-08-19T08:31:06;30.10;99.90
47540;DHT22;33280;52.152;21.052;2022-08-19T08:33:35;30.30;99.90
47540;DHT22;33280;52.152;21.052;2022-08-19T08:36:05;30.30;99.90
47540;DHT22;33280;52.152;21.052;2022-08-19T08:38:32;30.30;99.90
47540;DHT22;33280;52.152;21.052;2022-08-19T08:43:58;30.70;99.90
47540;DHT22;33280;52.152;21.052;2022-08-19T08:46:48;30.80;99.90
47540;DHT22;33280;52.152;21.052;2022-08-19T08:52:11;31.10;99.90
47540;DHT22;33280;52.152;21.052;2022-08-19T08:54:43;31.30;99.90
47540;DHT22;33280;52.152;21.052;2022-08-19T08:57:33;31.40;99.90
47540;DHT22;33280;52.152;21.052;2022-08-19T09:00:16;31.50;99.90
47540;DHT22;33280;52.152;21.052;2022-08-19T09:02:44;31.50;99.90
47540;DHT22;33280;52.152;21.052;2022-08-19T09:05:17;31.90;99.90
47540;DHT22;33280;52.152;21.052;2022-08-19T09:10:54;31.80;99.90
47540;DHT22;33280;52.152;21.052;2022-08-19T09:14:02;31.90;99.90
47540;DHT22;33280;52.152;21.052;2022-08-19T09:16:30;31.80;99.90
47540;DHT22;33280;52.152;21.052;2022-08-19T09:19:02;32.10;99.90
47540;DHT22;33280;52.152;21.052;2022-08-19T09:21:35;32.20;99.90
47540;DHT22;33280;52.152;21.052;2022-08-19T09:24:06;32.40;99.90
47540;DHT22;33280;52.152;21.052;2022-08-19T09:26:33;32.60;99.90
47540;DHT22;33280;52.152;21.052;2022-08-19T09:29:18;32.50;99.90
47540;DHT22;33280;52.152;21.052;2022-08-19T09:31:48;32.60;99.90
47540;DHT22;33280;52.152;21.052;2022-08-19T09:34:17;32.90;99.90
47540;DHT22;33280;52.152;21.052;2022-08-19T09:36:48;33.00;99.90
47540;DHT22;33280;52.152;21.052;2022-08-19T09:39:21;33.30;99.90
47540;DHT22;33280;52.152;21.052;2022-08-19T09:41:48;33.50;99.90
47540;DHT22;33280;52.152;21.052;2022-08-19T09:44:17;33.60;99.90
47540;DHT22;33280;52.152;21.052;2022-08-19T09:46:45;33.70;99.90
47540;DHT22;33280;52.152;21.052;2022-08-19T09:49:15;33.80;99.90
47540;DHT22;33280;52.152;21.052;2022-08-19T09:51:44;33.90;99.90
47540;DHT22;33280;52.152;21.052;2022-08-19T09:54:17;34.10;99.90
47540;DHT22;33280;52.152;21.052;2022-08-19T09:56:50;34.30;99.90
47540;DHT22;33280;52.152;21.052;2022-08-19T09:59:17;34.50;99.90
47540;DHT22;33280;52.152;21.052;2022-08-19T10:01:44;34.50;99.90
47540;DHT22;33280;52.152;21.052;2022-08-19T10:04:12;34.70;99.90
47540;DHT22;33280;52.152;21.052;2022-08-19T10:06:47;34.70;99.90
47540;DHT22;33280;52.152;21.052;2022-08-19T10:09:19;34.70;99.90
47540;DHT22;33280;52.152;21.052;2022-08-19T10:12:08;34.90;99.90
47540;DHT22;33280;52.152;21.052;2022-08-19T10:14:37;35.30;99.70
47540;DHT22;33280;52.152;21.052;2022-08-19T10:17:04;35.00;99.20
47540;DHT22;33280;52.152;21.052;2022-08-19T10:19:47;35.20;99.50
47540;DHT22;33280;52.152;21.052;2022-08-19T10:22:23;35.40;98.80
47540;DHT22;33280;52.152;21.052;2022-08-19T10:24:51;35.40;97.80
47540;DHT22;33280;52.152;21.052;2022-08-19T10:27:19;35.50;97.20
47540;DHT22;33280;52.152;21.052;2022-08-19T10:29:46;35.40;96.70
47540;DHT22;33280;52.152;21.052;2022-08-19T10:32:14;35.60;97.10
47540;DHT22;33280;52.152;21.052;2022-08-19T10:34:42;35.50;96.40
47540;DHT22;33280;52.152;21.052;2022-08-19T10:37:16;35.90;96.40
47540;DHT22;33280;52.152;21.052;2022-08-19T10:39:50;36.20;95.00
47540;DHT22;33280;52.152;21.052;2022-08-19T10:42:18;36.40;94.80
47540;DHT22;33280;52.152;21.052;2022-08-19T10:44:45;36.40;94.30
47540;DHT22;33280;52.152;21.052;2022-08-19T10:47:13;36.50;93.50
47540;DHT22;33280;52.152;21.052;2022-08-19T10:49:51;36.50;93.00
47540;DHT22;33280;52.152;21.052;2022-08-19T10:52:39;36.70;92.80
47540;DHT22;33280;52.152;21.052;2022-08-19T10:55:19;36.90;92.70
47540;DHT22;33280;52.152;21.052;2022-08-19T10:58:13;36.90;92.20
47540;DHT22;33280;52.152;21.052;2022-08-19T11:00:41;36.70;91.70
47540;DHT22;33280;52.152;21.052;2022-08-19T11:03:10;36.60;91.60
47540;DHT22;33280;52.152;21.052;2022-08-19T11:05:36;36.60;91.90
47540;DHT22;33280;52.152;21.052;2022-08-19T11:08:07;36.50;91.90
47540;DHT22;33280;52.152;21.052;2022-08-19T11:10:50;36.40;90.70
47540;DHT22;33280;52.152;21.052;2022-08-19T11:13:17;36.40;90.90
47540;DHT22;33280;52.152;21.052;2022-08-19T11:15:44;36.50;91.40
47540;DHT22;33280;52.152;21.052;2022-08-19T11:18:14;36.80;91.30
47540;DHT22;33280;52.152;21.052;2022-08-19T11:20:41;37.10;90.40
47540;DHT22;33280;52.152;21.052;2022-08-19T11:23:08;37.30;90.40
47540;DHT22;33280;52.152;21.052;2022-08-19T11:25:38;37.30;89.30
47540;DHT22;33280;52.152;21.052;2022-08-19T11:28:05;37.30;89.20
47540;DHT22;33280;52.152;21.052;2022-08-19T11:30:32;37.30;89.60
47540;DHT22;33280;52.152;21.052;2022-08-19T11:33:00;37.60;86.80
47540;DHT22;33280;52.152;21.052;2022-08-19T11:35:27;37.70;86.60
47540;DHT22;33280;52.152;21.052;2022-08-19T11:37:54;37.80;85.10
47540;DHT22;33280;52.152;21.052;2022-08-19T11:40:22;37.70;84.80
47540;DHT22;33280;52.152;21.052;2022-08-19T11:42:49;37.90;85.40
47540;DHT22;33280;52.152;21.052;2022-08-19T11:45:24;37.90;83.50
47540;DHT22;33280;52.152;21.052;2022-08-19T11:47:51;38.20;82.70
47540;DHT22;33280;52.152;21.052;2022-08-19T11:50:19;38.10;84.10
47540;DHT22;33280;52.152;21.052;2022-08-19T11:52:46;38.10;81.20
47540;DHT22;33280;52.152;21.052;2022-08-19T11:55:14;38.10;81.10
47540;DHT22;33280;52.152;21.052;2022-08-19T11:57:41;38.30;81.80
47540;DHT22;33280;52.152;21.052;2022-08-19T12:00:10;38.60;81.60
47540;DHT22;33280;52.152;21.052;2022-08-19T12:02:39;38.90;79.70
47540;DHT22;33280;52.152;21.052;2022-08-19T12:05:07;39.00;78.70
47540;DHT22;33280;52.152;21.052;2022-08-19T12:07:39;38.80;77.50
47540;DHT22;33280;52.152;21.052;2022-08-19T12:10:07;38.80;77.30
47540;DHT22;33280;52.152;21.052;2022-08-19T12:12:39;39.00;77.90
47540;DHT22;33280;52.152;21.052;2022-08-19T12:15:10;39.10;76.00
47540;DHT22;33280;52.152;21.052;2022-08-19T12:17:37;39.00;76.60
47540;DHT22;33280;52.152;21.052;2022-08-19T12:20:05;38.90;75.20
47540;DHT22;33280;52.152;21.052;2022-08-19T12:22:33;38.60;75.40
47540;DHT22;33280;52.152;21.052;2022-08-19T12:25:01;38.60;76.00
47540;DHT22;33280;52.152;21.052;2022-08-19T12:27:28;38.70;76.00
47540;DHT22;33280;52.152;21.052;2022-08-19T12:30:09;38.80;75.20
47540;DHT22;33280;52.152;21.052;2022-08-19T12:32:38;38.80;75.70
47540;DHT22;33280;52.152;21.052;2022-08-19T12:35:07;38.80;75.70
47540;DHT22;33280;52.152;21.052;2022-08-19T12:37:36;39.00;74.50
47540;DHT22;33280;52.152;21.052;2022-08-19T12:40:03;38.80;73.30
47540;DHT22;33280;52.152;21.052;2022-08-19T12:42:30;38.80;73.00
47540;DHT22;33280;52.152;21.052;2022-08-19T12:45:06;38.70;72.60
47540;DHT22;33280;52.152;21.052;2022-08-19T12:47:37;38.50;73.00
47540;DHT22;33280;52.152;21.052;2022-08-19T12:50:09;38.70;73.10
47540;DHT22;33280;52.152;21.052;2022-08-19T12:52:40;38.70;73.10
47540;DHT22;33280;52.152;21.052;2022-08-19T12:55:11;38.60;71.90
47540;DHT22;33280;52.152;21.052;2022-08-19T12:57:38;38.50;72.00
47540;DHT22;33280;52.152;21.052;2022-08-19T13:00:16;38.50;72.90
47540;DHT22;33280;52.152;21.052;2022-08-19T13:02:45;38.30;72.20
47540;DHT22;33280;52.152;21.052;2022-08-19T13:05:23;38.20;72.70
47540;DHT22;33280;52.152;21.052;2022-08-19T13:07:52;38.10;72.50
47540;DHT22;33280;52.152;21.052;2022-08-19T13:10:22;38.00;72.40
47540;DHT22;33280;52.152;21.052;2022-08-19T13:12:50;37.90;71.90
47540;DHT22;33280;52.152;21.052;2022-08-19T13:15:19;37.80;72.80
47540;DHT22;33280;52.152;21.052;2022-08-19T13:17:51;37.80;73.10
47540;DHT22;33280;52.152;21.052;2022-08-19T13:20:20;37.80;72.50
47540;DHT22;33280;52.152;21.052;2022-08-19T13:22:48;37.70;72.80
47540;DHT22;33280;52.152;21.052;2022-08-19T13:25:16;37.70;73.20
47540;DHT22;33280;52.152;21.052;2022-08-19T13:27:45;37.50;73.00
47540;DHT22;33280;52.152;21.052;2022-08-19T13:30:15;37.40;73.30
47540;DHT22;33280;52.152;21.052;2022-08-19T13:33:00;37.00;73.40
47540;DHT22;33280;52.152;21.052;2022-08-19T13:38:15;36.30;73.20
47540;DHT22;33280;52.152;21.052;2022-08-19T13:40:43;36.20;74.50
47540;DHT22;33280;52.152;21.052;2022-08-19T13:43:10;36.20;74.50
47540;DHT22;33280;52.152;21.052;2022-08-19T13:45:53;36.50;74.00
47540;DHT22;33280;52.152;21.052;2022-08-19T13:48:23;36.60;73.90
47540;DHT22;33280;52.152;21.052;2022-08-19T13:50:53;36.70;74.00
47540;DHT22;33280;52.152;21.052;2022-08-19T13:53:26;36.80;73.10
47540;DHT22;33280;52.152;21.052;2022-08-19T13:55:53;36.70;72.80
47540;DHT22;33280;52.152;21.052;2022-08-19T13:58:21;36.80;71.50
47540;DHT22;33280;52.152;21.052;2022-08-19T14:00:48;36.70;71.60
47540;DHT22;33280;52.152;21.052;2022-08-19T14:03:16;36.70;72.10
47540;DHT22;33280;52.152;21.052;2022-08-19T14:05:51;36.80;72.50
47540;DHT22;33280;52.152;21.052;2022-08-19T14:08:18;36.70;71.30
47540;DHT22;33280;52.152;21.052;2022-08-19T14:10:45;36.80;71.20
47540;DHT22;33280;52.152;21.052;2022-08-19T14:13:15;36.90;71.10
47540;DHT22;33280;52.152;21.052;2022-08-19T14:15:42;36.80;71.60
47540;DHT22;33280;52.152;21.052;2022-08-19T14:18:09;36.70;71.20
47540;DHT22;33280;52.152;21.052;2022-08-19T14:20:37;36.80;71.30
47540;DHT22;33280;52.152;21.052;2022-08-19T14:23:04;36.80;70.60
47540;DHT22;33280;52.152;21.052;2022-08-19T14:25:32;36.70;70.00
47540;DHT22;33280;52.152;21.052;2022-08-19T14:28:00;36.50;70.30
47540;DHT22;33280;52.152;21.052;2022-08-19T14:30:31;36.50;69.90
47540;DHT22;33280;52.152;21.052;2022-08-19T14:33:00;36.20;70.10
47540;DHT22;33280;52.152;21.052;2022-08-19T14:35:28;36.10;70.90
47540;DHT22;33280;52.152;21.052;2022-08-19T14:37:56;35.90;71.20
47540;DHT22;33280;52.152;21.052;2022-08-19T14:40:26;35.80;72.00
47540;DHT22;33280;52.152;21.052;2022-08-19T14:42:56;35.70;70.90
47540;DHT22;33280;52.152;21.052;2022-08-19T14:45:27;35.70;70.90
47540;DHT22;33280;52.152;21.052;2022-08-19T14:47:54;35.60;71.00
47540;DHT22;33280;52.152;21.052;2022-08-19T14:50:22;35.70;71.50
47540;DHT22;33280;52.152;21.052;2022-08-19T14:52:49;35.60;70.40
47540;DHT22;33280;52.152;21.052;2022-08-19T14:55:17;35.60;70.90
47540;DHT22;33280;52.152;21.052;2022-08-19T14:57:45;35.70;71.00
47540;DHT22;33280;52.152;21.052;2022-08-19T15:00:12;35.40;70.40
47540;DHT22;33280;52.152;21.052;2022-08-19T15:02:41;35.50;71.40
47540;DHT22;33280;52.152;21.052;2022-08-19T15:05:10;35.40;70.40
47540;DHT22;33280;52.152;21.052;2022-08-19T15:07:37;35.30;71.10
47540;DHT22;33280;52.152;21.052;2022-08-19T15:10:07;35.30;71.70
47540;DHT22;33280;52.152;21.052;2022-08-19T15:12:35;35.40;71.60
47540;DHT22;33280;52.152;21.052;2022-08-19T15:15:02;35.40;71.90
47540;DHT22;33280;52.152;21.052;2022-08-19T15:17:29;35.50;72.00
47540;DHT22;33280;52.152;21.052;2022-08-19T15:20:16;35.40;72.50
47540;DHT22;33280;52.152;21.052;2022-08-19T15:22:43;35.40;71.90
47540;DHT22;33280;52.152;21.052;2022-08-19T15:25:12;35.50;72.60
47540;DHT22;33280;52.152;21.052;2022-08-19T15:27:40;35.60;72.40
47540;DHT22;33280;52.152;21.052;2022-08-19T15:30:08;35.60;72.40
47540;DHT22;33280;52.152;21.052;2022-08-19T15:32:36;35.70;72.20
47540;DHT22;33280;52.152;21.052;2022-08-19T15:35:05;35.80;72.40
47540;DHT22;33280;52.152;21.052;2022-08-19T15:37:32;35.80;72.10
47540;DHT22;33280;52.152;21.052;2022-08-19T15:40:04;35.60;72.20
47540;DHT22;33280;52.152;21.052;2022-08-19T15:42:31;35.40;73.40
47540;DHT22;33280;52.152;21.052;2022-08-19T15:44:58;35.00;73.60
47540;DHT22;33280;52.152;21.052;2022-08-19T15:47:30;34.70;74.70
47540;DHT22;33280;52.152;21.052;2022-08-19T15:50:05;34.40;75.60